Time;durP1;ratioP1;P1;durP2;ratioP2;P2;SDS_P1;SDS_P2;PMS_P1;PMS_P2;Temp;Humidity;BMP_temperature;BMP_pressure;BME280_temperature;BME280_humidity;BME280_pressure;Samples;Min_cycle;Max_cycle;Signal;HPM_P1;HPM_P2
2023/01/15 00:00:40;;;;;;;1.77;1.00;;;24.40;45.80;;;;;;4955513;28;20254;-47
2023/01/15 00:03:11;;;;;;;2.00;1.05;;;24.40;45.90;;;;;;4954898;28;20225;-50
2023/01/15 00:05:41;;;;;;;2.00;1.00;;;24.30;45.80;;;;;;4948866;28;20223;-52
2023/01/15 00:08:12;;;;;;;2.40;1.00;;;24.40;45.90;;;;;;4954712;28;20285;-52
2023/01/15 00:10:45;;;;;;;1.63;0.88;;;24.30;46.10;;;;;;4954964;28;20686;-52
2023/01/15 00:13:15;;;;;;;1.80;0.98;;;24.40;46.30;;;;;;4935940;28;20223;-53
2023/01/15 00:15:46;;;;;;;2.63;1.10;;;24.40;46.30;;;;;;4942255;28;20223;-51
2023/01/15 00:18:17;;;;;;;2.25;0.80;;;24.40;46.40;;;;;;4955186;28;20375;-56
2023/01/15 00:20:47;;;;;;;2.70;1.08;;;24.50;46.50;;;;;;4954297;28;20206;-49
2023/01/15 00:28:59;;;;;;;1.77;1.00;;;24.60;46.50;;;;;;4920207;28;20289;-49
2023/01/15 00:31:30;;;;;;;2.85;1.05;;;24.70;46.60;;;;;;4952986;28;20194;-53
2023/01/15 00:34:00;;;;;;;1.83;0.85;;;24.70;46.60;;;;;;4954688;28;20231;-52
2023/01/15 00:36:32;;;;;;;1.85;0.90;;;24.80;46.60;;;;;;4954548;28;20218;-50
2023/01/15 00:39:03;;;;;;;2.95;0.90;;;24.80;46.60;;;;;;4957428;28;20195;-55
2023/01/15 00:41:35;;;;;;;1.23;0.98;;;24.90;46.60;;;;;;4953764;28;20205;-51
2023/01/15 00:44:06;;;;;;;1.10;0.80;;;24.90;46.60;;;;;;4953663;28;20210;-52
2023/01/15 00:46:37;;;;;;;3.13;0.80;;;25.00;46.50;;;;;;4953773;28;20219;-52
2023/01/15 00:49:08;;;;;;;1.42;0.73;;;25.10;46.60;;;;;;4953632;28;20207;-50
2023/01/15 00:51:39;;;;;;;2.00;1.10;;;25.10;46.60;;;;;;4954409;28;20191;-55
2023/01/15 00:54:09;;;;;;;3.10;0.90;;;25.10;46.50;;;;;;4953745;28;20226;-49
2023/01/15 00:56:42;;;;;;;2.13;0.98;;;25.20;46.50;;;;;;4953577;28;20690;-51
2023/01/15 00:59:13;;;;;;;2.80;1.05;;;25.30;46.50;;;;;;4953557;28;20958;-53
2023/01/15 01:01:43;;;;;;;1.60;0.80;;;25.30;46.40;;;;;;4950331;28;20195;-53
2023/01/15 01:04:14;;;;;;;3.80;1.20;;;25.30;46.40;;;;;;4969470;28;20740;-52
2023/01/15 01:06:45;;;;;;;2.85;1.02;;;25.40;46.40;;;;;;4960500;28;20226;-52
2023/01/15 01:09:16;;;;;;;2.25;0.90;;;25.40;46.30;;;;;;4950543;29;20233;-51
2023/01/15 01:11:50;;;;;;;1.48;0.70;;;25.50;46.20;;;;;;4953078;28;20203;-53
2023/01/15 01:14:21;;;;;;;2.67;1.00;;;25.50;46.20;;;;;;4951054;29;20218;-51
2023/01/15 01:16:51;;;;;;;2.30;0.93;;;25.50;46.20;;;;;;4952650;28;20214;-53
2023/01/15 01:19:24;;;;;;;2.42;1.05;;;25.60;46.30;;;;;;4953855;28;20207;-53
2023/01/15 01:21:55;;;;;;;1.77;0.90;;;25.60;46.20;;;;;;4953274;28;20198;-52
2023/01/15 01:24:26;;;;;;;3.53;0.85;;;25.60;46.10;;;;;;4952704;28;20200;-54
2023/01/15 01:26:59;;;;;;;2.85;0.80;;;25.70;46.20;;;;;;4953274;28;20229;-52
2023/01/15 01:29:30;;;;;;;2.72;0.90;;;25.70;46.10;;;;;;4952997;28;20199;-53
2023/01/15 01:32:00;;;;;;;1.40;1.00;;;25.80;46.20;;;;;;4953377;28;20195;-55
2023/01/15 01:34:32;;;;;;;1.50;0.80;;;25.80;46.00;;;;;;4958675;28;20589;-56
2023/01/15 01:37:03;;;;;;;1.88;0.80;;;25.80;45.90;;;;;;4971886;28;20218;-53
2023/01/15 01:39:33;;;;;;;1.85;0.90;;;25.80;45.90;;;;;;4960740;28;20195;-51
2023/01/15 01:42:10;;;;;;;2.15;0.90;;;25.90;45.90;;;;;;4952723;28;20213;-51
2023/01/15 01:45:06;;;;;;;1.52;0.70;;;25.90;45.70;;;;;;4953091;28;20194;-52
2023/01/15 01:47:37;;;;;;;1.85;0.98;;;25.90;45.60;;;;;;4952648;28;20215;-53
2023/01/15 01:50:11;;;;;;;3.05;0.93;;;25.90;45.60;;;;;;4952110;28;20202;-54
2023/01/15 01:52:46;;;;;;;1.58;0.70;;;25.90;45.70;;;;;;4953270;28;20199;-52
2023/01/15 01:55:19;;;;;;;1.92;0.90;;;25.90;45.70;;;;;;4952149;28;20202;-52
2023/01/15 01:57:54;;;;;;;1.65;1.05;;;26.00;45.70;;;;;;4952261;28;20210;-48
2023/01/15 02:00:25;;;;;;;1.63;0.90;;;26.00;45.70;;;;;;4952195;28;20731;-49
2023/01/15 02:02:57;;;;;;;2.00;0.77;;;26.00;45.60;;;;;;4952365;28;20191;-49
2023/01/15 02:05:32;;;;;;;3.80;1.05;;;26.10;45.70;;;;;;4952053;28;20202;-49
2023/01/15 02:08:03;;;;;;;1.58;0.73;;;26.10;45.60;;;;;;4952509;28;20206;-50
2023/01/15 02:10:34;;;;;;;1.95;0.82;;;26.10;45.50;;;;;;4951963;28;20219;-53
2023/01/15 02:13:13;;;;;;;1.90;0.90;;;26.10;45.50;;;;;;4951785;28;20230;-52
2023/01/15 02:15:48;;;;;;;2.50;0.95;;;26.20;45.40;;;;;;4952385;28;20221;-51
2023/01/15 02:18:29;;;;;;;2.05;1.00;;;26.20;45.30;;;;;;4951786;28;20209;-51
2023/01/15 02:21:03;;;;;;;2.80;1.00;;;26.20;45.30;;;;;;4951888;28;20191;-51
2023/01/15 02:23:55;;;;;;;2.30;0.70;;;26.20;45.20;;;;;;4951669;28;20581;-53
2023/01/15 02:26:56;;;;;;;3.10;0.80;;;26.20;45.20;;;;;;4951922;28;20225;-55
2023/01/15 02:29:36;;;;;;;1.85;0.80;;;26.20;45.20;;;;;;4949116;29;20654;-49
2023/01/15 02:32:12;;;;;;;2.08;0.70;;;26.20;45.30;;;;;;4952747;28;20209;-53
2023/01/15 02:34:50;;;;;;;1.90;1.00;;;26.30;45.50;;;;;;4952059;28;20313;-53
2023/01/15 02:37:26;;;;;;;4.55;1.20;;;26.30;45.70;;;;;;4952228;28;20639;-57
2023/01/15 02:39:59;;;;;;;3.15;1.10;;;26.30;45.80;;;;;;4952052;28;20190;-53
2023/01/15 02:42:31;;;;;;;4.60;0.90;;;26.30;45.80;;;;;;4952463;28;20203;-53
2023/01/15 02:45:07;;;;;;;5.07;1.13;;;26.30;45.80;;;;;;4952196;28;20203;-58
2023/01/15 02:47:39;;;;;;;2.63;1.08;;;26.40;45.80;;;;;;4955047;28;20452;-57
2023/01/15 02:50:15;;;;;;;3.53;1.20;;;26.40;45.60;;;;;;4952979;28;20217;-54
2023/01/15 02:52:49;;;;;;;1.83;0.52;;;26.40;45.70;;;;;;4952413;28;20195;-58
2023/01/15 02:55:24;;;;;;;4.30;1.08;;;26.50;46.00;;;;;;4952403;28;20233;-58
2023/01/15 02:57:58;;;;;;;4.18;0.98;;;26.50;46.10;;;;;;4951752;28;20205;-57
2023/01/15 03:00:34;;;;;;;2.85;0.90;;;26.50;45.80;;;;;;4952161;28;20196;-55
2023/01/15 03:03:08;;;;;;;3.17;1.20;;;26.50;45.70;;;;;;4951546;28;20202;-52
2023/01/15 03:05:43;;;;;;;2.60;0.80;;;26.50;45.80;;;;;;4951885;28;20624;-57
2023/01/15 03:08:15;;;;;;;4.40;1.08;;;26.60;46.30;;;;;;4951258;28;20280;-51
2023/01/15 03:10:49;;;;;;;3.45;1.05;;;26.60;46.40;;;;;;4951780;28;20213;-49
2023/01/15 03:13:22;;;;;;;6.47;1.15;;;26.60;45.80;;;;;;4966547;28;20208;-51
2023/01/15 03:18:52;;;;;;;5.20;1.20;;;26.50;44.50;;;;;;4950931;29;20661;-51
2023/01/15 03:21:28;;;;;;;5.25;1.38;;;26.40;44.70;;;;;;4951569;28;20210;-52
2023/01/15 03:24:01;;;;;;;4.18;1.20;;;26.30;44.90;;;;;;4951531;28;20203;-51
2023/01/15 03:26:32;;;;;;;4.63;1.23;;;26.10;45.20;;;;;;4951477;28;20222;-54
2023/01/15 03:29:05;;;;;;;3.58;1.08;;;26.00;45.60;;;;;;4951904;28;20195;-49
2023/01/15 03:31:39;;;;;;;4.13;1.30;;;25.90;45.70;;;;;;4952463;28;20207;-49
2023/01/15 03:34:17;;;;;;;4.07;1.20;;;25.80;46.00;;;;;;4952262;28;20238;-51
2023/01/15 03:36:47;;;;;;;4.82;1.20;;;25.60;46.00;;;;;;4946603;28;20692;-55
2023/01/15 03:39:18;;;;;;;5.45;1.08;;;25.60;46.30;;;;;;4952101;28;20672;-52
2023/01/15 03:41:59;;;;;;;4.78;1.13;;;25.60;46.40;;;;;;4951664;28;20199;-57
2023/01/15 03:44:38;;;;;;;2.97;1.05;;;25.50;46.20;;;;;;4951447;28;20214;-54
2023/01/15 03:47:20;;;;;;;4.20;1.17;;;25.50;46.40;;;;;;4956183;28;20709;-56
2023/01/15 03:49:59;;;;;;;3.40;1.00;;;25.30;46.50;;;;;;4953812;28;20210;-57
2023/01/15 03:52:34;;;;;;;3.50;1.23;;;25.30;46.60;;;;;;4954010;28;20836;-56
2023/01/15 03:55:13;;;;;;;4.57;1.25;;;25.20;46.60;;;;;;4954113;28;20237;-56
2023/01/15 03:57:48;;;;;;;5.90;1.00;;;25.20;46.80;;;;;;4954174;28;20202;-53
2023/01/15 04:00:25;;;;;;;4.65;1.27;;;25.10;46.70;;;;;;4954344;28;20207;-56
2023/01/15 04:03:00;;;;;;;3.80;1.48;;;25.10;46.70;;;;;;4953413;28;20211;-56
2023/01/15 04:05:32;;;;;;;5.25;1.00;;;25.00;46.80;;;;;;4954598;28;20210;-54
2023/01/15 04:08:04;;;;;;;4.10;1.10;;;25.00;47.00;;;;;;4953036;28;20221;-54
2023/01/15 04:10:35;;;;;;;5.47;1.17;;;24.90;47.20;;;;;;4953453;28;20198;-55
2023/01/15 04:13:07;;;;;;;3.40;1.38;;;24.90;47.30;;;;;;4951556;28;20218;-54
2023/01/15 04:15:38;;;;;;;4.80;1.42;;;24.80;47.40;;;;;;4953253;28;20237;-54
2023/01/15 04:18:11;;;;;;;3.30;1.10;;;24.80;47.60;;;;;;4952827;28;20644;-54
2023/01/15 04:20:41;;;;;;;7.38;1.63;;;24.70;47.70;;;;;;4953385;28;20599;-52
2023/01/15 04:23:12;;;;;;;6.18;1.50;;;24.70;48.00;;;;;;4953753;28;20199;-56
2023/01/15 04:25:43;;;;;;;5.28;1.67;;;24.70;48.10;;;;;;4953389;28;20695;-53
2023/01/15 04:28:14;;;;;;;3.38;1.30;;;24.60;48.10;;;;;;4952835;28;20685;-54
2023/01/15 04:30:45;;;;;;;6.68;1.75;;;24.60;48.20;;;;;;4953110;28;20209;-53
2023/01/15 04:33:17;;;;;;;6.78;1.95;;;24.70;48.40;;;;;;4949281;29;20205;-54
2023/01/15 04:35:48;;;;;;;4.68;1.73;;;24.70;48.40;;;;;;4953617;28;20764;-53
2023/01/15 04:38:19;;;;;;;2.97;1.40;;;24.70;48.40;;;;;;4955746;28;20209;-54
2023/01/15 04:46:24;;;;;;;5.00;1.45;;;24.90;48.30;;;;;;4945860;28;20234;-55
2023/01/15 04:48:57;;;;;;;2.95;1.13;;;25.00;48.20;;;;;;4950420;28;20206;-54
2023/01/15 04:51:28;;;;;;;2.28;1.20;;;25.10;48.20;;;;;;4952728;28;20207;-52
2023/01/15 04:54:00;;;;;;;2.63;1.10;;;25.10;48.10;;;;;;4952634;28;20206;-54
2023/01/15 04:56:31;;;;;;;3.60;1.33;;;25.20;48.20;;;;;;4951922;28;20281;-52
2023/01/15 04:59:03;;;;;;;3.15;1.13;;;25.20;48.10;;;;;;4951977;28;20210;-54
2023/01/15 05:01:34;;;;;;;2.40;1.17;;;25.30;48.10;;;;;;4952951;28;20206;-54
2023/01/15 05:04:07;;;;;;;3.67;1.00;;;25.30;48.00;;;;;;4952626;28;20706;-52
2023/01/15 05:06:38;;;;;;;3.95;1.02;;;25.40;47.90;;;;;;4952983;28;20676;-53
2023/01/15 05:09:09;;;;;;;2.83;1.10;;;25.50;47.90;;;;;;4951484;28;20202;-55
2023/01/15 05:11:41;;;;;;;1.60;1.05;;;25.50;47.80;;;;;;4952222;28;20206;-54
2023/01/15 05:14:11;;;;;;;2.90;1.20;;;25.60;47.70;;;;;;4952113;28;20215;-53
2023/01/15 05:16:42;;;;;;;1.52;0.88;;;25.60;47.70;;;;;;4952823;28;20241;-55
2023/01/15 05:19:15;;;;;;;2.88;0.90;;;25.70;47.60;;;;;;4959614;28;20671;-54
2023/01/15 05:21:46;;;;;;;2.13;0.98;;;25.70;47.60;;;;;;4952097;28;20207;-52
2023/01/15 05:24:18;;;;;;;2.58;1.20;;;25.80;47.50;;;;;;4944179;29;20610;-55
2023/01/15 05:26:49;;;;;;;3.40;1.08;;;25.80;47.40;;;;;;4951564;28;20234;-54
2023/01/15 05:29:19;;;;;;;2.78;0.90;;;25.90;47.40;;;;;;4945740;29;20596;-53
2023/01/15 05:31:50;;;;;;;2.55;1.10;;;25.90;47.40;;;;;;4951736;28;20202;-54
2023/01/15 05:34:26;;;;;;;2.78;0.90;;;26.00;47.40;;;;;;4952515;28;20546;-56
2023/01/15 05:36:56;;;;;;;3.35;0.95;;;26.00;47.30;;;;;;4951709;28;20226;-54
2023/01/15 05:39:27;;;;;;;1.98;0.98;;;26.00;47.30;;;;;;4952212;28;20211;-54
2023/01/15 05:41:58;;;;;;;4.70;1.20;;;26.10;47.30;;;;;;4952225;28;20199;-52
2023/01/15 05:44:30;;;;;;;4.50;1.25;;;26.10;47.20;;;;;;4951868;28;20206;-54
2023/01/15 05:47:04;;;;;;;2.17;0.95;;;26.10;47.10;;;;;;4951734;28;20253;-56
2023/01/15 05:49:37;;;;;;;3.38;0.98;;;26.20;47.20;;;;;;4952031;28;20234;-50
2023/01/15 05:52:08;;;;;;;2.55;1.05;;;26.20;47.10;;;;;;4951619;28;20229;-51
2023/01/15 05:54:39;;;;;;;1.92;1.10;;;26.20;47.10;;;;;;4951354;28;20230;-53
2023/01/15 05:57:11;;;;;;;1.50;0.90;;;26.30;47.10;;;;;;4950987;28;20222;-55
2023/01/15 05:59:42;;;;;;;2.83;1.33;;;26.30;47.10;;;;;;4951476;28;20234;-53
2023/01/15 06:02:13;;;;;;;1.98;1.10;;;26.30;47.10;;;;;;4951229;28;20214;-55
2023/01/15 06:04:46;;;;;;;2.45;1.00;;;26.30;47.00;;;;;;4951926;28;20199;-53
2023/01/15 06:07:17;;;;;;;2.70;1.10;;;26.40;47.10;;;;;;4951550;28;20223;-56
2023/01/15 06:09:48;;;;;;;3.33;1.15;;;26.40;47.00;;;;;;4951425;28;20199;-50
2023/01/15 06:12:19;;;;;;;2.67;0.90;;;26.40;46.90;;;;;;4943893;29;20589;-54
2023/01/15 06:14:49;;;;;;;3.58;1.10;;;26.40;46.90;;;;;;4951447;28;20225;-53
2023/01/15 06:17:20;;;;;;;2.55;1.13;;;26.40;46.90;;;;;;4951812;28;20591;-51
2023/01/15 06:19:53;;;;;;;2.70;0.95;;;26.50;47.00;;;;;;4950971;28;20214;-53
2023/01/15 06:22:23;;;;;;;2.55;0.93;;;26.50;46.90;;;;;;4951570;28;20573;-54
2023/01/15 06:24:54;;;;;;;2.35;1.10;;;26.50;46.90;;;;;;4951263;28;20207;-55
2023/01/15 06:27:25;;;;;;;3.08;1.13;;;26.50;46.90;;;;;;4951032;28;20222;-54
2023/01/15 06:29:57;;;;;;;1.50;0.90;;;26.50;46.80;;;;;;4950993;28;20206;-56
2023/01/15 06:32:29;;;;;;;1.90;0.90;;;26.50;46.70;;;;;;4951113;28;20237;-55
2023/01/15 06:35:01;;;;;;;1.35;0.70;;;26.50;46.70;;;;;;4959459;28;20725;-56
2023/01/15 06:37:32;;;;;;;1.73;0.90;;;26.60;46.80;;;;;;4951039;28;20215;-55
2023/01/15 06:40:03;;;;;;;3.25;1.08;;;26.60;46.80;;;;;;4952443;28;20226;-54
2023/01/15 06:48:07;;;;;;;1.73;1.00;;;26.60;46.60;;;;;;4952778;29;20233;-53
2023/01/15 06:50:40;;;;;;;2.05;1.00;;;26.60;46.50;;;;;;4953301;28;20199;-51
2023/01/15 06:53:11;;;;;;;1.98;0.93;;;26.60;46.50;;;;;;4953026;28;20848;-51
2023/01/15 06:55:42;;;;;;;1.80;1.20;;;26.70;46.50;;;;;;4952773;28;20262;-52
2023/01/15 06:58:13;;;;;;;2.17;1.02;;;26.70;46.50;;;;;;4952552;28;20675;-55
2023/01/15 07:00:52;;;;;;;2.58;1.13;;;26.70;46.50;;;;;;4952750;28;20210;-55
2023/01/15 07:03:23;;;;;;;1.88;0.80;;;26.70;46.50;;;;;;4952956;28;20202;-51
2023/01/15 07:05:55;;;;;;;2.22;1.00;;;26.70;46.50;;;;;;4952545;28;20319;-54
2023/01/15 07:08:26;;;;;;;2.15;0.98;;;26.70;46.60;;;;;;4952618;28;20210;-52
2023/01/15 07:10:56;;;;;;;1.65;0.90;;;26.70;46.60;;;;;;4952151;28;20199;-51
2023/01/15 07:13:27;;;;;;;2.10;1.00;;;26.80;46.60;;;;;;4952561;28;20565;-52
2023/01/15 07:16:00;;;;;;;1.65;0.93;;;26.80;46.60;;;;;;4952440;28;20242;-54
2023/01/15 07:18:31;;;;;;;1.67;1.02;;;26.80;46.60;;;;;;4952460;28;20198;-53
2023/01/15 07:21:04;;;;;;;1.90;0.80;;;26.80;47.20;;;;;;4954941;28;20202;-55
2023/01/15 07:23:35;;;;;;;1.23;0.80;;;26.80;46.60;;;;;;4955809;28;20199;-53
2023/01/15 07:26:05;;;;;;;1.48;1.00;;;26.80;46.50;;;;;;4955777;28;20230;-50
2023/01/15 07:28:36;;;;;;;1.60;0.90;;;26.80;46.60;;;;;;4955598;28;20225;-51
2023/01/15 07:31:07;;;;;;;1.40;0.95;;;26.80;46.50;;;;;;4955932;28;20206;-49
2023/01/15 07:33:37;;;;;;;2.28;1.00;;;26.80;46.60;;;;;;4956169;28;20558;-50
2023/01/15 07:36:10;;;;;;;2.00;0.95;;;26.80;46.50;;;;;;4955838;28;20230;-53
2023/01/15 07:38:41;;;;;;;1.50;0.90;;;26.80;46.50;;;;;;4956179;28;20207;-53
2023/01/15 07:49:47;;;;;;;2.63;1.15;;;26.80;46.20;;;;;;4956130;29;20194;-52
2023/01/15 07:52:21;;;;;;;1.75;0.90;;;26.80;46.20;;;;;;4955794;28;20281;-50
2023/01/15 07:54:52;;;;;;;2.28;1.15;;;26.70;46.10;;;;;;4955635;28;20206;-49
2023/01/15 07:57:24;;;;;;;1.50;1.20;;;26.70;46.20;;;;;;4955533;28;20698;-52
2023/01/15 07:59:55;;;;;;;1.27;0.70;;;26.70;46.20;;;;;;4955359;28;20211;-50
2023/01/15 08:02:26;;;;;;;2.75;1.13;;;26.70;46.20;;;;;;4955127;28;20214;-52
2023/01/15 08:04:56;;;;;;;1.45;0.90;;;26.70;46.30;;;;;;4955971;28;20199;-51
2023/01/15 08:07:29;;;;;;;2.28;0.80;;;26.70;46.20;;;;;;4955821;28;20246;-54
2023/01/15 08:10:00;;;;;;;1.15;0.70;;;26.70;46.30;;;;;;4954958;28;20666;-49
2023/01/15 08:15:17;;;;;;;2.20;1.10;;;26.60;46.20;;;;;;4955317;28;20834;-54
2023/01/15 08:17:48;;;;;;;1.65;1.05;;;26.60;46.20;;;;;;4955391;28;20199;-52
2023/01/15 08:20:20;;;;;;;2.08;0.93;;;26.60;46.20;;;;;;4955148;28;20210;-54
2023/01/15 08:22:53;;;;;;;2.45;1.10;;;26.60;46.20;;;;;;4955100;28;20588;-50
2023/01/15 08:25:25;;;;;;;1.50;0.88;;;26.60;46.20;;;;;;4955399;28;20199;-50
2023/01/15 08:27:56;;;;;;;1.45;0.80;;;26.50;46.10;;;;;;4955259;28;20202;-50
2023/01/15 08:30:28;;;;;;;1.45;0.90;;;26.50;46.10;;;;;;4955066;28;20206;-50
2023/01/15 08:33:03;;;;;;;2.00;0.90;;;26.50;46.10;;;;;;4954017;28;20203;-49
2023/01/15 08:35:35;;;;;;;2.03;0.98;;;26.50;46.10;;;;;;4954592;28;20238;-50
2023/01/15 08:38:10;;;;;;;1.35;0.70;;;26.50;46.20;;;;;;4954338;28;20231;-55
2023/01/15 08:43:24;;;;;;;2.50;1.00;;;26.40;46.20;;;;;;4967884;28;20198;-49
2023/01/15 08:45:56;;;;;;;1.90;1.00;;;26.40;46.20;;;;;;4974009;28;20214;-49
2023/01/15 08:48:27;;;;;;;1.23;0.70;;;26.40;46.20;;;;;;4974057;28;20210;-50
2023/01/15 08:50:58;;;;;;;1.50;1.00;;;26.40;46.20;;;;;;4973427;28;20201;-52
2023/01/15 08:53:30;;;;;;;2.65;0.80;;;26.40;46.20;;;;;;4973333;28;20209;-51
2023/01/15 08:56:01;;;;;;;2.50;0.98;;;26.40;46.20;;;;;;4973517;28;20240;-53
2023/01/15 08:58:32;;;;;;;2.92;1.17;;;26.30;46.10;;;;;;4973794;28;20209;-56
2023/01/15 09:01:07;;;;;;;1.73;1.00;;;26.30;46.10;;;;;;4973797;28;20564;-50
2023/01/15 09:03:38;;;;;;;1.70;0.80;;;26.20;46.10;;;;;;4973935;28;20193;-51
2023/01/15 09:06:09;;;;;;;1.73;1.00;;;26.20;46.10;;;;;;4973779;28;20218;-53
2023/01/15 09:08:42;;;;;;;1.77;0.98;;;26.20;46.10;;;;;;4973282;28;20199;-51
2023/01/15 09:11:13;;;;;;;2.83;1.02;;;26.20;46.10;;;;;;4961034;28;20211;-51
2023/01/15 09:13:45;;;;;;;2.25;1.20;;;26.20;46.10;;;;;;4954194;28;20543;-54
2023/01/15 09:16:16;;;;;;;2.70;0.90;;;26.20;46.10;;;;;;4954300;28;20318;-54
2023/01/15 09:18:48;;;;;;;2.00;1.08;;;26.20;46.10;;;;;;4954335;28;20218;-53
2023/01/15 09:21:18;;;;;;;2.60;0.90;;;26.20;46.10;;;;;;4953778;28;20203;-57
2023/01/15 09:23:51;;;;;;;1.75;1.20;;;26.10;45.80;;;;;;4943019;28;20209;-56
2023/01/15 09:26:30;;;;;;;1.98;0.90;;;26.10;45.50;;;;;;4956763;28;20592;-56
2023/01/15 09:29:00;;;;;;;2.13;0.90;;;26.00;45.40;;;;;;4952357;28;20206;-56
2023/01/15 09:31:31;;;;;;;1.80;1.02;;;26.00;45.40;;;;;;4952432;28;20571;-57
2023/01/15 09:34:02;;;;;;;2.65;1.42;;;25.90;45.40;;;;;;4945290;29;20198;-56
2023/01/15 09:36:34;;;;;;;1.60;0.70;;;25.90;45.30;;;;;;4952298;28;20699;-58
2023/01/15 09:39:07;;;;;;;1.92;1.15;;;25.90;45.40;;;;;;4946018;29;20568;-57
2023/01/15 09:42:09;;;;;;;2.67;1.10;;;25.80;45.40;;;;;;4951844;28;20206;-56
2023/01/15 09:44:58;;;;;;;1.73;1.13;;;25.80;45.40;;;;;;4951316;28;20265;-55
2023/01/15 09:47:32;;;;;;;1.73;0.80;;;25.80;45.50;;;;;;4951857;28;20246;-56
2023/01/15 09:50:15;;;;;;;2.35;1.00;;;25.70;45.50;;;;;;4945720;29;20219;-54
2023/01/15 09:53:06;;;;;;;1.38;0.80;;;25.70;45.50;;;;;;4946440;28;20721;-55
2023/01/15 09:55:47;;;;;;;1.98;1.00;;;25.70;45.60;;;;;;4951863;28;20857;-57
2023/01/15 09:58:21;;;;;;;2.08;1.05;;;25.70;45.60;;;;;;4951960;28;20778;-57
2023/01/15 10:00:53;;;;;;;1.75;1.00;;;25.70;45.60;;;;;;4951429;28;20681;-56
2023/01/15 10:03:37;;;;;;;1.27;0.80;;;25.70;45.70;;;;;;4951860;28;20199;-55
2023/01/15 10:06:15;;;;;;;1.92;1.20;;;25.60;45.60;;;;;;4951676;28;20303;-53
2023/01/15 10:08:48;;;;;;;1.35;0.77;;;25.60;45.60;;;;;;4951158;28;20662;-56
2023/01/15 10:14:41;;;;;;;2.38;1.02;;;25.50;45.50;;;;;;4952034;29;20206;-57
2023/01/15 10:17:30;;;;;;;2.42;1.02;;;25.50;45.60;;;;;;4951057;28;20599;-56
2023/01/15 10:20:01;;;;;;;2.08;0.93;;;25.50;45.60;;;;;;4943877;29;20230;-54
2023/01/15 10:22:44;;;;;;;2.72;0.90;;;25.50;45.60;;;;;;4953018;28;20198;-55
2023/01/15 10:25:18;;;;;;;1.77;0.80;;;25.40;45.60;;;;;;4950860;28;20195;-52
2023/01/15 10:27:54;;;;;;;1.33;1.10;;;25.40;45.70;;;;;;4950879;28;20211;-54
2023/01/15 10:30:36;;;;;;;2.25;1.20;;;25.40;46.30;;;;;;4951613;28;20654;-53
2023/01/15 10:33:18;;;;;;;1.40;0.80;;;25.40;45.70;;;;;;4951092;28;20199;-56
2023/01/15 10:35:54;;;;;;;1.55;0.90;;;25.30;45.70;;;;;;4949918;28;20596;-56
2023/01/15 10:38:33;;;;;;;2.35;0.90;;;25.30;45.70;;;;;;4951416;28;20199;-54
2023/01/15 10:41:21;;;;;;;4.50;1.00;;;25.30;45.70;;;;;;4951763;28;20220;-54
2023/01/15 10:43:59;;;;;;;2.05;1.00;;;25.30;46.30;;;;;;4950779;28;20213;-57
2023/01/15 10:46:36;;;;;;;2.08;1.00;;;25.30;45.70;;;;;;4952269;28;20215;-57
2023/01/15 10:49:14;;;;;;;1.73;0.90;;;25.30;45.70;;;;;;4951030;28;20207;-55
2023/01/15 10:51:48;;;;;;;1.58;0.70;;;25.20;45.70;;;;;;4950576;28;20207;-55
2023/01/15 10:54:27;;;;;;;1.60;1.00;;;25.20;45.70;;;;;;4950706;28;20666;-55
2023/01/15 10:57:04;;;;;;;1.02;0.70;;;25.10;45.70;;;;;;4953394;28;20245;-57
2023/01/15 10:59:42;;;;;;;2.33;0.90;;;25.10;45.70;;;;;;4956277;28;20867;-56
2023/01/15 11:02:27;;;;;;;1.48;0.82;;;25.10;45.70;;;;;;4956025;28;20217;-56
2023/01/15 11:04:58;;;;;;;2.03;0.90;;;25.10;45.80;;;;;;4956077;29;20757;-53
2023/01/15 11:07:37;;;;;;;2.40;1.00;;;25.10;45.80;;;;;;4954545;29;20219;-56
2023/01/15 11:10:11;;;;;;;2.00;0.80;;;25.10;45.80;;;;;;4953898;29;20230;-57
2023/01/15 11:21:16;;;;;;;1.25;0.77;;;25.00;45.80;;;;;;4937866;29;20199;-56
2023/01/15 11:23:47;;;;;;;0.70;0.70;;;24.90;45.80;;;;;;4937194;29;20199;-57
2023/01/15 11:26:22;;;;;;;1.23;0.75;;;24.90;45.80;;;;;;4936865;29;20230;-56
2023/01/15 11:28:53;;;;;;;2.17;1.10;;;24.90;45.80;;;;;;4937196;29;20199;-57
2023/01/15 11:31:36;;;;;;;0.85;0.80;;;24.80;45.80;;;;;;4937180;29;20207;-55
2023/01/15 11:34:09;;;;;;;2.15;0.90;;;24.80;45.80;;;;;;4937414;29;20203;-57
2023/01/15 11:36:39;;;;;;;1.58;0.90;;;24.80;45.90;;;;;;4937359;29;20239;-57
2023/01/15 11:39:29;;;;;;;1.40;0.70;;;24.80;45.90;;;;;;4937292;29;20208;-57
2023/01/15 11:50:55;;;;;;;1.27;0.90;;;24.70;46.50;;;;;;4955513;29;20215;-57
2023/01/15 11:53:28;;;;;;;1.77;0.90;;;24.70;45.90;;;;;;4955406;28;20678;-57
2023/01/15 11:56:02;;;;;;;1.63;0.75;;;24.60;45.90;;;;;;4954790;28;20696;-56
2023/01/15 11:58:36;;;;;;;1.17;0.70;;;24.60;45.90;;;;;;4955097;28;20195;-56
2023/01/15 12:01:06;;;;;;;1.50;0.88;;;24.60;45.90;;;;;;4954949;28;20568;-58
2023/01/15 12:03:41;;;;;;;2.22;0.77;;;24.50;45.90;;;;;;4955466;28;20205;-58
2023/01/15 12:06:14;;;;;;;1.25;0.73;;;24.50;45.90;;;;;;4955243;28;20218;-54
2023/01/15 12:08:51;;;;;;;1.67;0.80;;;24.50;46.00;;;;;;4955007;28;20876;-57
2023/01/15 12:11:36;;;;;;;0.93;0.60;;;24.50;46.00;;;;;;4955270;28;20253;-55
2023/01/15 12:14:34;;;;;;;0.77;0.70;;;24.40;46.00;;;;;;4955263;28;20198;-55
2023/01/15 12:17:21;;;;;;;1.67;0.80;;;24.40;46.00;;;;;;4954859;28;20234;-54
2023/01/15 12:20:04;;;;;;;1.10;0.80;;;24.40;46.00;;;;;;4954664;28;20687;-54
2023/01/15 12:22:52;;;;;;;1.33;0.80;;;24.40;46.00;;;;;;4955350;28;20198;-55
2023/01/15 12:25:46;;;;;;;1.40;0.82;;;24.40;46.00;;;;;;4955335;28;20199;-55
2023/01/15 12:28:23;;;;;;;1.52;0.88;;;24.30;46.00;;;;;;4955178;28;20613;-55
2023/01/15 12:31:01;;;;;;;1.63;0.82;;;24.30;46.00;;;;;;4954844;28;20207;-56
2023/01/15 12:33:48;;;;;;;1.23;0.90;;;24.30;46.10;;;;;;4954886;28;20214;-56
2023/01/15 12:36:24;;;;;;;1.38;0.80;;;24.30;46.10;;;;;;4955142;28;20238;-55
2023/01/15 12:39:00;;;;;;;2.80;0.80;;;24.20;46.10;;;;;;4956956;28;20190;-56
2023/01/15 12:47:12;;;;;;;1.50;0.80;;;24.20;46.20;;;;;;4954368;28;20229;-57
2023/01/15 12:49:47;;;;;;;0.90;0.70;;;24.10;46.10;;;;;;4954857;28;20293;-57
2023/01/15 12:52:24;;;;;;;0.93;0.75;;;24.10;46.20;;;;;;4954741;28;20201;-58
2023/01/15 12:55:03;;;;;;;0.60;0.60;;;24.10;46.20;;;;;;4954292;28;20202;-57
2023/01/15 12:57:39;;;;;;;0.77;0.70;;;24.10;46.30;;;;;;4953901;28;20234;-57
2023/01/15 13:00:16;;;;;;;1.52;0.90;;;24.00;46.20;;;;;;4954187;28;20209;-58
2023/01/15 13:02:59;;;;;;;1.58;0.60;;;24.00;46.20;;;;;;4954056;28;20287;-57
2023/01/15 13:05:33;;;;;;;0.82;0.57;;;24.00;46.20;;;;;;4953782;28;20209;-54
2023/01/15 13:08:12;;;;;;;1.08;0.80;;;24.00;46.20;;;;;;4954040;28;20202;-55
2023/01/15 13:10:44;;;;;;;1.15;0.70;;;24.00;46.30;;;;;;4954570;28;20214;-55
2023/01/15 13:13:18;;;;;;;1.73;1.00;;;24.00;46.30;;;;;;4957006;28;20199;-57
2023/01/15 13:16:05;;;;;;;0.90;0.68;;;23.90;46.30;;;;;;4953410;28;20235;-55
2023/01/15 13:18:46;;;;;;;0.68;0.57;;;23.90;46.40;;;;;;4953626;28;20230;-55
2023/01/15 13:21:19;;;;;;;1.23;0.77;;;23.90;46.30;;;;;;4954074;28;20289;-56
2023/01/15 13:24:21;;;;;;;0.95;0.65;;;23.80;46.30;;;;;;4954473;28;20669;-52
2023/01/15 13:27:09;;;;;;;0.90;0.68;;;23.80;46.40;;;;;;4953938;28;20226;-54
2023/01/15 13:29:50;;;;;;;0.82;0.80;;;23.80;46.40;;;;;;4954025;28;20734;-56
2023/01/15 13:32:23;;;;;;;1.13;0.70;;;23.80;46.40;;;;;;4954187;28;20195;-56
2023/01/15 13:34:58;;;;;;;0.85;0.70;;;23.70;46.40;;;;;;4953690;28;20199;-55
2023/01/15 13:37:31;;;;;;;1.08;0.60;;;23.70;46.40;;;;;;4953175;28;20234;-56
2023/01/15 13:40:12;;;;;;;1.08;0.80;;;23.70;46.40;;;;;;4953655;28;20195;-55
2023/01/15 13:42:47;;;;;;;1.10;0.63;;;23.70;46.40;;;;;;4954160;28;20198;-53
2023/01/15 13:45:31;;;;;;;1.45;0.70;;;23.70;46.40;;;;;;4953745;28;20210;-52
2023/01/15 13:48:08;;;;;;;1.35;0.80;;;23.70;46.40;;;;;;4953723;28;20202;-55
2023/01/15 13:50:42;;;;;;;1.10;0.80;;;23.60;46.50;;;;;;4953621;28;20198;-56
2023/01/15 13:53:25;;;;;;;1.38;0.60;;;23.60;46.50;;;;;;4953132;28;20199;-54
2023/01/15 13:56:01;;;;;;;0.60;0.57;;;23.60;46.50;;;;;;4933802;29;20230;-55
2023/01/15 13:58:33;;;;;;;2.00;0.80;;;23.60;46.50;;;;;;4933670;29;20291;-55
2023/01/15 14:01:09;;;;;;;0.77;0.68;;;23.50;46.50;;;;;;4934151;29;20208;-54
2023/01/15 14:03:41;;;;;;;0.73;0.50;;;23.50;46.50;;;;;;4933813;29;20203;-54
2023/01/15 14:06:12;;;;;;;1.45;0.70;;;23.50;46.60;;;;;;4934206;29;20223;-54
2023/01/15 14:08:44;;;;;;;0.60;0.60;;;23.50;46.60;;;;;;4933905;29;20241;-54
2023/01/15 14:11:41;;;;;;;0.93;0.80;;;23.50;46.60;;;;;;4946854;29;20222;-57
2023/01/15 14:15:06;;;;;;;0.75;0.68;;;23.50;46.60;;;;;;4953264;28;20203;-56
2023/01/15 14:18:01;;;;;;;0.55;0.55;;;23.40;46.60;;;;;;4861811;29;20239;-56
2023/01/15 14:21:00;;;;;;;0.73;0.60;;;23.40;46.60;;;;;;4951246;28;20207;-55
2023/01/15 14:23:55;;;;;;;1.98;0.85;;;23.40;47.20;;;;;;4953184;28;20222;-52
2023/01/15 14:26:33;;;;;;;0.85;0.80;;;23.40;46.70;;;;;;4952636;28;20233;-53